Login   Iscriviti    Portale ilVolo.it    Indice Forum    Aerofan.it PhotoGallery    Cerca    FAQ    Regolamento

Il meteo su Washington

AVIATION TOP 100 - www.avitop.com Avitop.com

Indice  »  Flight Crews Area  »  Meteo

 

 


Apri un nuovo argomento Rispondi all’argomento  [ 3 messaggi ] 
Autore Messaggio
 Oggetto del messaggio: Ma che tempo!!!
 Messaggio Inviato: 08/11/2010, 9:25 
Community Member
Community Member
Avatar utente
Non connesso
Uomo
Iscritto il: 22/08/2008
Messaggi: 6338
Località: Est di Greenwich,Nord dell'Equatore
Età: 26
Forzato a terra da questo tempaccio,non ne posso più!

Immagine

Qui i metar dei principali aeroporti del nord Italia,e oltre a non farmi volare questo maltempo sta facendo sempre più danni!

METAR LIMC 080750Z 36009KT 340V050 4000 -RA BR BKN010 06/04 Q0987 RERA NOSIG=

METAR LIML 080750Z 15006KT 110V180 2500 BR SCT005 BKN045 10/10 Q0987 NOSIG=

METAR LIMJ 080750Z 21019KT 9999 FEW015 SCT028 15/08 0987=

METAR LIMF 080750Z 30005KT 8000 SCT070 08/04 Q0987=

METAR LIPO 080750Z 18004KT 070V190 9999 FEW010 BKN045 12/10 Q0988 RMK VIS MIN 9999=

METAR LIPZ 080750Z VRB03KT 4000 RA BR BKN003 BKN035 14/13 Q0989=

METAR LIPB 080750Z VRB02KT 9999 -RA SCT020 BKN045 09/06 Q0988 RMK MON GEN INC VIS MIN 9999=

_________________
Immagine


Top 
 Profilo  
 
 Oggetto del messaggio: Re: Ma che tempo!!!
 Messaggio Inviato: 08/11/2010, 13:19 
ilVolo.it Crew
ilVolo.it Crew
Avatar utente
Non connesso
Uomo
Iscritto il: 18/03/2008
Messaggi: 13816
Età: 52
Non ti dico cosa ho passato io a Padova, e non sono tra quelli che ha avuto problemi...

_________________
Franco

http://www.aeroclubpadova.it
http://www.voloavelapadova.it
JetPhotos.Net, Spotting Group ilVolo.it

Immagine


Top 
 Profilo  
 
 Oggetto del messaggio: Re: Ma che tempo!!!
 Messaggio Inviato: 08/11/2010, 22:48 
Community Member
Community Member
Avatar utente
Non connesso
Uomo
Iscritto il: 22/08/2008
Messaggi: 6338
Località: Est di Greenwich,Nord dell'Equatore
Età: 26
pippo682 ha scritto:
Non ti dico cosa ho passato io a Padova, e non sono tra quelli che ha avuto problemi...

Sta facendo veramente seri danni,speriamo smetta per davvero!

_________________
Immagine


Top 
 Profilo  
 
Visualizza ultimi messaggi:  Ordina per  
 
Apri un nuovo argomento Rispondi all’argomento  [ 3 messaggi ] 

Indice  »  Flight Crews Area  »  Meteo


 

Chi c’è in linea

Visitano il forum: Nessuno e 1 ospite

 
 

 
Non puoi aprire nuovi argomenti
Non puoi rispondere negli argomenti
Non puoi modificare i tuoi messaggi
Non puoi cancellare i tuoi messaggi
Non puoi inviare allegati

Cerca per:
Vai a: